Search for airport 
image banner adimage banner ad
image banner ad

FQTT - Tete / Chingozi / National

Located in , Mozambique

ICAO - FQTT, IATA - TET

Data provided by Airmate  

General information

Coordinates: S16°6'29" E33°38'25"
Elevation is 525 feet MSL.
 
View others Airports in Tete Province

Operational data

Open for public use
Current time UTC:
Current local time:
Weather
METAR: FQTT 280800Z 05003KT 360V110 9999 FEW020 33/23 Q1011
TAF: TAF FQTT 280400Z 2806/2906 19008KT 9999 SCT020 TX36/2813Z TN24/2903Z PROB30 TEMPO 2810/2814 TS FEW025CB BECMG 2812/2814 12010KT BECMG 2820/2822 06008KT
View NOTAMs / SUP AIP / TFR affecting this airport [VIEW]
Communications frequencies: [VIEW]

Runways:

RWY identifierQFULength (ft)Width (ft)SurfaceLDA (ft)
01820298ASP
19820298

Airport contact information

Address: Mozambique

Satellite view of FQTT